Terminal Aerodrome Forecast
Issued by NWS

Current Version | Previous Version | Text Only | Print | Product List | Glossary Off
Versions: 1 2 3 4 5 6 7 8 9 10 11 12 13 14 15 16 17 18 19 20 21 22 23 24 25 26 27 28 29 30

000
FTUS41 KRLX 211700
TAFCKB
TAF
KCKB 211720Z 2118/2218 22009KT P6SM BKN025 BKN040
     FM212200 23006KT 4SM -SHRA BR VCTS BKN035CB
     FM220200 VRB03KT 6SM -RA BR BKN025
     FM220400 00000KT 6SM BR BKN035
     FM220800 00000KT 3SM BR BKN025
     FM221300 00000KT 4SM BR BKN015
     FM221600 23004KT 6SM TSRA BR BKN015CB=

USA.gov is the U.S. government's official web portal to all federal, state and local government web resources and services.